Green Bay (GRB/KGRB)

Map

Information

Location
Green Bay, WI
Local Time
00:35 / 12:35 am
GMT Time
06:35 / 6:35 am
Gates
Unassigned
No FAA reported delays
METAR KGRB 220553Z AUTO 18006KT 10SM BKN110 07/04 A2977 RMK AO2 SLP086 T00670039 10117 20067 401500067 56008
TAF KGRB 220525Z 2206/2306 21006KT P6SM SCT120 BKN250 WS009/22035KT FM221500 21010G18KT P6SM SCT120 BKN250 FM222000 19006KT P6SM BKN120 FM230300 30006KT P6SM SCT050 BKN100
  • No charts available